Time;durP1;ratioP1;P1;durP2;ratioP2;P2;SDS_P1;SDS_P2;PMS_P1;PMS_P2;Temp;Humidity;BMP_temperature;BMP_pressure;BME280_temperature;BME280_humidity;BME280_pressure;Samples;Min_cycle;Max_cycle;Signal;HPM_P1;HPM_P2
2023/04/23 00:00:37;;;;;;;122.70;50.90;;;;;;;;;;4979376;28;25098;-75
2023/04/23 00:03:09;;;;;;;102.43;46.35;;;;;;;;;;4975421;28;25056;-78
2023/04/23 00:05:36;;;;;;;113.97;47.97;;;;;;;;;;4972964;28;25072;-76
2023/04/23 00:08:02;;;;;;;114.18;48.47;;;;;;;;;;4977944;28;25074;-78
2023/04/23 00:10:29;;;;;;;115.55;47.78;;;;;;;;;;4979596;28;25100;-75
2023/04/23 00:12:55;;;;;;;108.63;48.85;;;;;;;;;;4975434;28;25180;-75
2023/04/23 00:15:21;;;;;;;116.00;48.40;;;;;;;;;;4983726;28;25134;-73
2023/04/23 00:17:48;;;;;;;118.50;48.72;;;;;;;;;;4972827;28;25117;-75
2023/04/23 00:20:15;;;;;;;114.55;46.72;;;;;;;;;;4974855;28;25079;-76
2023/04/23 00:22:41;;;;;;;98.93;45.28;;;;;;;;;;4987598;28;25062;-77
2023/04/23 00:25:07;;;;;;;109.45;46.30;;;;;;;;;;4976456;28;25045;-76
2023/04/23 00:27:33;;;;;;;111.00;47.10;;;;;;;;;;4968204;28;25072;-74
2023/04/23 00:29:59;;;;;;;117.25;48.15;;;;;;;;;;4982423;28;25098;-75
2023/04/23 00:32:25;;;;;;;113.90;47.50;;;;;;;;;;4975564;28;25061;-74
2023/04/23 00:34:53;;;;;;;106.38;45.78;;;;;;;;;;4977045;28;25113;-77
2023/04/23 00:37:19;;;;;;;113.47;45.55;;;;;;;;;;4977956;28;25083;-74
2023/04/23 00:39:45;;;;;;;112.13;46.88;;;;;;;;;;4983046;28;25068;-75
2023/04/23 00:42:11;;;;;;;113.80;48.92;;;;;;;;;;4978692;28;25061;-75
2023/04/23 00:44:40;;;;;;;112.55;46.83;;;;;;;;;;4981433;28;25056;-75
2023/04/23 00:47:06;;;;;;;122.65;47.42;;;;;;;;;;4974407;28;25146;-76
2023/04/23 00:49:38;;;;;;;103.28;46.38;;;;;;;;;;4981015;28;25106;-76
2023/04/23 00:52:04;;;;;;;102.75;44.38;;;;;;;;;;4989864;28;25094;-76
2023/04/23 00:54:30;;;;;;;109.30;46.65;;;;;;;;;;4983251;28;25081;-77
2023/04/23 00:56:59;;;;;;;100.65;42.60;;;;;;;;;;4968759;28;25064;-73
2023/04/23 00:59:26;;;;;;;90.05;40.47;;;;;;;;;;4980304;28;25044;-75
2023/04/23 01:01:52;;;;;;;100.28;42.83;;;;;;;;;;4973961;28;25062;-74
2023/04/23 01:04:20;;;;;;;81.07;37.47;;;;;;;;;;4978906;28;25080;-75
2023/04/23 01:06:46;;;;;;;78.60;36.85;;;;;;;;;;4980426;28;25063;-75
2023/04/23 01:09:12;;;;;;;85.85;37.53;;;;;;;;;;4980718;28;25058;-75
2023/04/23 01:11:39;;;;;;;80.43;37.28;;;;;;;;;;4989128;28;25071;-75
2023/04/23 01:14:05;;;;;;;72.32;36.40;;;;;;;;;;4984484;28;25076;-74
2023/04/23 01:16:31;;;;;;;74.53;38.22;;;;;;;;;;4959340;28;25058;-75
2023/04/23 01:18:57;;;;;;;78.60;36.90;;;;;;;;;;4974315;28;25085;-73
2023/04/23 01:21:24;;;;;;;71.07;35.97;;;;;;;;;;4957798;28;25098;-75
2023/04/23 01:23:51;;;;;;;63.08;31.02;;;;;;;;;;4972371;28;25082;-76
2023/04/23 01:26:17;;;;;;;65.63;33.97;;;;;;;;;;4987368;28;25082;-73
2023/04/23 01:28:45;;;;;;;58.20;31.15;;;;;;;;;;4980574;28;25078;-75
2023/04/23 01:31:13;;;;;;;58.78;29.55;;;;;;;;;;4979511;28;25057;-74
2023/04/23 01:33:39;;;;;;;63.67;31.58;;;;;;;;;;4986038;28;25073;-76
2023/04/23 01:36:05;;;;;;;57.17;31.88;;;;;;;;;;4978171;28;25067;-74
2023/04/23 01:38:32;;;;;;;53.40;29.70;;;;;;;;;;4973375;28;25063;-75
2023/04/23 01:40:58;;;;;;;55.25;30.77;;;;;;;;;;4992722;28;25060;-79
2023/04/23 01:43:25;;;;;;;54.17;30.27;;;;;;;;;;5002538;28;25056;-76
2023/04/23 01:45:52;;;;;;;50.42;29.75;;;;;;;;;;4970164;28;25058;-75
2023/04/23 01:48:18;;;;;;;53.33;29.08;;;;;;;;;;4996536;28;25059;-73
2023/04/23 01:50:44;;;;;;;53.95;28.13;;;;;;;;;;4988618;28;25104;-75
2023/04/23 01:53:10;;;;;;;53.15;29.00;;;;;;;;;;4975656;28;25101;-75
2023/04/23 01:55:38;;;;;;;48.22;28.20;;;;;;;;;;4983810;28;25135;-73
2023/04/23 01:58:04;;;;;;;49.08;27.45;;;;;;;;;;4977742;28;25067;-73
2023/04/23 02:00:31;;;;;;;48.33;26.15;;;;;;;;;;4986503;28;25152;-73
2023/04/23 02:02:57;;;;;;;47.60;27.48;;;;;;;;;;4988710;28;25081;-75
2023/04/23 02:05:23;;;;;;;45.38;27.17;;;;;;;;;;4994746;28;25090;-74
2023/04/23 02:07:50;;;;;;;44.13;24.58;;;;;;;;;;4987455;28;25086;-79
2023/04/23 02:10:17;;;;;;;47.92;24.85;;;;;;;;;;4993833;28;25126;-75
2023/04/23 02:12:44;;;;;;;44.33;24.88;;;;;;;;;;4982774;28;25063;-74
2023/04/23 02:15:11;;;;;;;46.83;24.60;;;;;;;;;;4982157;28;25091;-73
2023/04/23 02:17:38;;;;;;;41.20;24.02;;;;;;;;;;4987248;28;25061;-76
2023/04/23 02:20:05;;;;;;;44.80;24.60;;;;;;;;;;4980768;28;25062;-74
2023/04/23 02:22:31;;;;;;;45.88;25.02;;;;;;;;;;4981654;28;25073;-77
2023/04/23 02:24:58;;;;;;;43.40;24.75;;;;;;;;;;4979348;28;25094;-73
2023/04/23 02:27:24;;;;;;;47.45;26.40;;;;;;;;;;4975525;28;25077;-75
2023/04/23 02:29:51;;;;;;;43.50;24.08;;;;;;;;;;4978805;28;25080;-74
2023/04/23 02:32:17;;;;;;;46.83;26.33;;;;;;;;;;4994469;28;25055;-75
2023/04/23 02:34:43;;;;;;;45.53;25.08;;;;;;;;;;4978817;28;25103;-76
2023/04/23 02:37:09;;;;;;;45.47;25.52;;;;;;;;;;4981481;28;25063;-74
2023/04/23 02:39:35;;;;;;;42.85;24.63;;;;;;;;;;5000503;28;25052;-78
2023/04/23 02:42:01;;;;;;;42.45;24.25;;;;;;;;;;4981112;28;25060;-75
2023/04/23 02:44:27;;;;;;;43.40;25.05;;;;;;;;;;4991882;28;25142;-75
2023/04/23 02:46:53;;;;;;;39.08;23.60;;;;;;;;;;4984486;28;25094;-73
2023/04/23 02:49:19;;;;;;;42.22;23.33;;;;;;;;;;4978093;28;25070;-75
2023/04/23 02:51:45;;;;;;;43.65;23.88;;;;;;;;;;4982449;28;25065;-75
2023/04/23 02:54:11;;;;;;;42.55;24.85;;;;;;;;;;4984079;28;25059;-75
2023/04/23 02:56:37;;;;;;;42.05;24.60;;;;;;;;;;4978908;28;25080;-73
2023/04/23 02:59:03;;;;;;;39.63;23.35;;;;;;;;;;4979518;28;25162;-74
2023/04/23 03:01:29;;;;;;;46.50;25.25;;;;;;;;;;4974238;28;25075;-74
2023/04/23 03:03:55;;;;;;;40.35;24.02;;;;;;;;;;4972764;28;25058;-75
2023/04/23 03:06:22;;;;;;;39.42;23.52;;;;;;;;;;4979248;28;25071;-76
2023/04/23 03:08:47;;;;;;;41.90;24.38;;;;;;;;;;4984417;28;25072;-74
2023/04/23 03:11:13;;;;;;;42.35;24.40;;;;;;;;;;4978647;28;25113;-75
2023/04/23 03:13:39;;;;;;;44.70;24.48;;;;;;;;;;4992574;28;25080;-74
2023/04/23 03:16:06;;;;;;;42.38;24.85;;;;;;;;;;4981594;28;25070;-75
2023/04/23 03:18:31;;;;;;;44.28;24.75;;;;;;;;;;4980028;28;25087;-75
2023/04/23 03:20:57;;;;;;;47.33;25.27;;;;;;;;;;4983164;28;25078;-73
2023/04/23 03:23:24;;;;;;;43.72;24.42;;;;;;;;;;4980785;28;25075;-74
2023/04/23 03:25:50;;;;;;;43.22;24.25;;;;;;;;;;4978206;28;25175;-77
2023/04/23 03:28:16;;;;;;;37.92;22.20;;;;;;;;;;4987163;28;25054;-79
2023/04/23 03:30:42;;;;;;;41.28;23.65;;;;;;;;;;4976679;28;25061;-74
2023/04/23 03:33:08;;;;;;;38.75;22.75;;;;;;;;;;4976920;28;25111;-73
2023/04/23 03:35:35;;;;;;;45.00;24.10;;;;;;;;;;4990396;28;25065;-77
2023/04/23 03:38:01;;;;;;;38.58;22.95;;;;;;;;;;4971961;28;25068;-76
2023/04/23 03:40:27;;;;;;;38.45;23.05;;;;;;;;;;4978020;28;25059;-77
2023/04/23 03:42:53;;;;;;;42.80;25.35;;;;;;;;;;4991258;28;25180;-74
2023/04/23 03:45:19;;;;;;;41.60;24.25;;;;;;;;;;4973521;28;25070;-76
2023/04/23 03:47:45;;;;;;;39.85;23.73;;;;;;;;;;4975669;28;25142;-76
2023/04/23 03:50:12;;;;;;;44.30;23.90;;;;;;;;;;4973861;28;25142;-77
2023/04/23 03:52:38;;;;;;;46.15;25.23;;;;;;;;;;4970742;28;25127;-78
2023/04/23 03:55:04;;;;;;;42.75;24.08;;;;;;;;;;4976063;28;25148;-76
2023/04/23 03:57:30;;;;;;;38.72;22.90;;;;;;;;;;4976431;28;25070;-77
2023/04/23 03:59:57;;;;;;;38.67;23.00;;;;;;;;;;4986135;28;25077;-76
2023/04/23 04:02:23;;;;;;;40.60;23.65;;;;;;;;;;4974631;28;25047;-77
2023/04/23 04:04:50;;;;;;;46.28;24.98;;;;;;;;;;4978943;28;25078;-75
2023/04/23 04:07:16;;;;;;;37.28;21.27;;;;;;;;;;4977756;28;25050;-76
2023/04/23 04:09:42;;;;;;;42.05;24.50;;;;;;;;;;4976569;28;25156;-75
2023/04/23 04:12:08;;;;;;;42.20;23.70;;;;;;;;;;4975336;28;25091;-76
2023/04/23 04:14:34;;;;;;;44.28;24.23;;;;;;;;;;4973719;28;25153;-77
2023/04/23 04:17:00;;;;;;;45.67;25.70;;;;;;;;;;4975819;28;25084;-75
2023/04/23 04:19:26;;;;;;;39.05;24.15;;;;;;;;;;4974198;28;25060;-73
2023/04/23 04:21:52;;;;;;;42.40;24.02;;;;;;;;;;4977369;28;25103;-76
2023/04/23 04:24:18;;;;;;;41.75;24.58;;;;;;;;;;4977098;28;25122;-78
2023/04/23 04:26:44;;;;;;;40.60;23.02;;;;;;;;;;4977128;28;25069;-75
2023/04/23 04:29:11;;;;;;;46.15;24.55;;;;;;;;;;4977378;28;25063;-74
2023/04/23 04:31:37;;;;;;;45.97;25.27;;;;;;;;;;4980967;28;25172;-76
2023/04/23 04:34:03;;;;;;;42.63;23.67;;;;;;;;;;4975259;28;25054;-77
2023/04/23 04:36:30;;;;;;;52.63;25.08;;;;;;;;;;4983918;28;25077;-75
2023/04/23 04:38:59;;;;;;;48.50;26.25;;;;;;;;;;4981531;28;25072;-74
2023/04/23 04:41:26;;;;;;;44.25;24.60;;;;;;;;;;4985436;28;25083;-74
2023/04/23 04:43:53;;;;;;;45.67;25.27;;;;;;;;;;4977101;28;25075;-75
2023/04/23 04:46:19;;;;;;;42.78;24.35;;;;;;;;;;4990874;28;25101;-76
2023/04/23 04:48:45;;;;;;;43.63;24.05;;;;;;;;;;4975307;28;25074;-75
2023/04/23 04:51:11;;;;;;;45.40;24.25;;;;;;;;;;4976155;28;25126;-74
2023/04/23 04:53:37;;;;;;;41.75;23.83;;;;;;;;;;4972084;28;25070;-75
2023/04/23 04:56:03;;;;;;;41.53;24.63;;;;;;;;;;4975733;28;25071;-76
2023/04/23 04:58:30;;;;;;;43.45;22.67;;;;;;;;;;4972467;28;25092;-72
2023/04/23 05:00:56;;;;;;;34.92;20.85;;;;;;;;;;4973196;28;25067;-76
2023/04/23 05:03:22;;;;;;;39.20;22.30;;;;;;;;;;4979738;28;25072;-77
2023/04/23 05:05:48;;;;;;;47.67;24.80;;;;;;;;;;4984077;28;25074;-74
2023/04/23 05:08:17;;;;;;;37.28;22.27;;;;;;;;;;4981050;28;25078;-75
2023/04/23 05:10:43;;;;;;;39.33;21.20;;;;;;;;;;4996463;28;25056;-76
2023/04/23 05:13:09;;;;;;;32.78;20.08;;;;;;;;;;4980264;28;25058;-75
2023/04/23 05:15:35;;;;;;;39.00;21.75;;;;;;;;;;5000024;28;25064;-77
2023/04/23 05:18:05;;;;;;;42.50;22.20;;;;;;;;;;4996802;28;25047;-79
2023/04/23 05:20:31;;;;;;;34.85;20.95;;;;;;;;;;4989198;28;25063;-76
2023/04/23 05:23:01;;;;;;;34.53;20.80;;;;;;;;;;4982028;28;25077;-74
2023/04/23 05:25:27;;;;;;;30.33;19.73;;;;;;;;;;4993922;28;25099;-78
2023/04/23 05:27:53;;;;;;;32.88;20.02;;;;;;;;;;4998766;28;25070;-77
2023/04/23 05:30:19;;;;;;;33.72;19.70;;;;;;;;;;4996564;28;25073;-77
2023/04/23 05:32:45;;;;;;;32.35;20.05;;;;;;;;;;4988541;28;25049;-76
2023/04/23 05:35:11;;;;;;;37.25;22.08;;;;;;;;;;4981823;28;25083;-75
2023/04/23 05:37:37;;;;;;;32.50;20.20;;;;;;;;;;4974300;28;25085;-77
2023/04/23 05:40:05;;;;;;;37.42;21.27;;;;;;;;;;4977047;28;25056;-76
2023/04/23 05:42:31;;;;;;;33.67;19.70;;;;;;;;;;4982828;28;25051;-74
2023/04/23 05:44:57;;;;;;;31.48;19.08;;;;;;;;;;4982363;28;25143;-76
2023/04/23 05:47:23;;;;;;;34.30;20.52;;;;;;;;;;5008999;28;25103;-77
2023/04/23 05:49:49;;;;;;;32.17;18.13;;;;;;;;;;4990135;28;25067;-74
2023/04/23 05:52:15;;;;;;;31.35;18.27;;;;;;;;;;4988405;28;25081;-75
2023/04/23 05:54:41;;;;;;;32.05;18.88;;;;;;;;;;4984907;28;25074;-76
2023/04/23 05:57:08;;;;;;;27.98;18.25;;;;;;;;;;4986521;28;25102;-76
2023/04/23 05:59:34;;;;;;;34.67;19.58;;;;;;;;;;4982336;28;25064;-74
2023/04/23 06:02:00;;;;;;;32.10;18.85;;;;;;;;;;4990182;28;25084;-74
2023/04/23 06:04:26;;;;;;;29.10;17.60;;;;;;;;;;4986414;28;25071;-74
2023/04/23 06:06:52;;;;;;;27.38;17.10;;;;;;;;;;4990909;28;25063;-75
2023/04/23 06:09:18;;;;;;;29.50;17.15;;;;;;;;;;4983208;28;25073;-76
2023/04/23 06:11:44;;;;;;;28.10;16.70;;;;;;;;;;4977095;28;25151;-76
2023/04/23 06:14:10;;;;;;;25.83;16.08;;;;;;;;;;4985753;28;25076;-76
2023/04/23 06:16:36;;;;;;;29.55;16.30;;;;;;;;;;4972596;28;25065;-76
2023/04/23 06:19:03;;;;;;;26.23;14.50;;;;;;;;;;4970604;28;25146;-78
2023/04/23 06:21:29;;;;;;;24.70;15.50;;;;;;;;;;4967285;28;25053;-77
2023/04/23 06:23:55;;;;;;;20.75;13.88;;;;;;;;;;4966597;28;25058;-76
2023/04/23 06:26:21;;;;;;;27.58;14.55;;;;;;;;;;4968415;28;25057;-75
2023/04/23 06:28:47;;;;;;;26.27;14.90;;;;;;;;;;4968528;28;25115;-75
2023/04/23 06:31:13;;;;;;;22.35;13.88;;;;;;;;;;4968197;28;25082;-72
2023/04/23 06:33:39;;;;;;;22.10;13.38;;;;;;;;;;4962951;28;25055;-75
2023/04/23 06:36:05;;;;;;;24.00;13.60;;;;;;;;;;4968618;28;25062;-76
2023/04/23 06:38:31;;;;;;;22.50;12.93;;;;;;;;;;4967192;28;25084;-75
2023/04/23 06:40:57;;;;;;;23.77;14.00;;;;;;;;;;4973389;28;25115;-76
2023/04/23 06:43:24;;;;;;;17.70;12.73;;;;;;;;;;4966395;28;25068;-77
2023/04/23 06:45:49;;;;;;;26.67;13.25;;;;;;;;;;4962350;28;25098;-77
2023/04/23 06:48:17;;;;;;;22.10;12.90;;;;;;;;;;4967985;28;25099;-75
2023/04/23 06:50:43;;;;;;;23.23;12.13;;;;;;;;;;4969405;28;25067;-76
2023/04/23 06:53:09;;;;;;;16.90;10.15;;;;;;;;;;4966193;28;25052;-75
2023/04/23 06:55:35;;;;;;;21.05;10.27;;;;;;;;;;4972139;28;25099;-75
2023/04/23 06:58:01;;;;;;;14.77;8.20;;;;;;;;;;4975266;28;25093;-74
2023/04/23 07:00:27;;;;;;;15.98;8.23;;;;;;;;;;4974182;28;25144;-75
2023/04/23 07:02:53;;;;;;;15.68;8.80;;;;;;;;;;4967804;28;25066;-76
2023/04/23 07:05:19;;;;;;;18.23;9.18;;;;;;;;;;4977870;28;25083;-75
2023/04/23 07:07:45;;;;;;;14.45;7.53;;;;;;;;;;4971914;28;25152;-75
2023/04/23 07:10:11;;;;;;;14.73;8.75;;;;;;;;;;4982949;28;25050;-75
2023/04/23 07:12:38;;;;;;;16.52;8.85;;;;;;;;;;4968275;28;25122;-71
2023/04/23 07:15:04;;;;;;;14.45;8.60;;;;;;;;;;4968080;28;25066;-74
2023/04/23 07:17:30;;;;;;;15.43;8.35;;;;;;;;;;4972510;28;25071;-75
2023/04/23 07:19:56;;;;;;;21.52;9.32;;;;;;;;;;4967291;28;25067;-72
2023/04/23 07:22:23;;;;;;;15.25;9.18;;;;;;;;;;4967068;28;25148;-75
2023/04/23 07:24:49;;;;;;;16.70;8.65;;;;;;;;;;4963225;28;25120;-76
2023/04/23 07:27:15;;;;;;;14.90;8.20;;;;;;;;;;4970064;28;25101;-75
2023/04/23 07:29:41;;;;;;;15.02;8.23;;;;;;;;;;4965174;28;25078;-76
2023/04/23 07:32:07;;;;;;;13.00;7.63;;;;;;;;;;4977661;28;25074;-74
2023/04/23 07:34:33;;;;;;;17.52;8.93;;;;;;;;;;4965442;28;25088;-77
2023/04/23 07:36:59;;;;;;;18.00;8.90;;;;;;;;;;4988284;28;25069;-74
2023/04/23 07:39:25;;;;;;;17.38;7.82;;;;;;;;;;4975031;28;25065;-75
2023/04/23 07:41:51;;;;;;;17.27;7.78;;;;;;;;;;4972144;28;25063;-76
2023/04/23 07:44:17;;;;;;;14.00;6.38;;;;;;;;;;4963477;28;25118;-74
2023/04/23 07:46:42;;;;;;;11.82;6.97;;;;;;;;;;4982901;28;25055;-75
2023/04/23 07:49:08;;;;;;;12.95;7.45;;;;;;;;;;4966371;28;25084;-75
2023/04/23 07:51:34;;;;;;;18.38;7.85;;;;;;;;;;4968245;28;25065;-74
2023/04/23 07:54:00;;;;;;;14.88;7.78;;;;;;;;;;4960870;28;25069;-73
2023/04/23 07:56:26;;;;;;;13.32;6.53;;;;;;;;;;4983219;28;25095;-77
2023/04/23 07:58:55;;;;;;;15.40;6.40;;;;;;;;;;4965584;28;25140;-77
2023/04/23 08:01:21;;;;;;;20.27;6.88;;;;;;;;;;4982408;28;25065;-75
2023/04/23 08:03:47;;;;;;;11.20;6.60;;;;;;;;;;4963064;28;25130;-75
2023/04/23 08:06:13;;;;;;;12.00;6.47;;;;;;;;;;4985770;28;25051;-75
2023/04/23 08:08:39;;;;;;;12.88;6.93;;;;;;;;;;4974585;28;25192;-76
2023/04/23 08:11:06;;;;;;;11.50;6.47;;;;;;;;;;4965304;28;25151;-76
2023/04/23 08:13:32;;;;;;;15.00;5.75;;;;;;;;;;4968237;28;25139;-75
2023/04/23 08:15:58;;;;;;;14.38;5.70;;;;;;;;;;4964031;28;25147;-75
2023/04/23 08:18:24;;;;;;;13.52;6.72;;;;;;;;;;4964797;28;25087;-75
2023/04/23 08:20:50;;;;;;;10.77;6.00;;;;;;;;;;4967002;28;25102;-76
2023/04/23 08:23:17;;;;;;;10.63;6.30;;;;;;;;;;4968547;28;25058;-76
2023/04/23 08:25:43;;;;;;;8.68;5.97;;;;;;;;;;4962076;28;25049;-77
2023/04/23 08:28:09;;;;;;;11.73;7.13;;;;;;;;;;4967311;28;25136;-78
2023/04/23 08:30:34;;;;;;;13.23;6.07;;;;;;;;;;4967661;28;25058;-75
2023/04/23 08:33:00;;;;;;;15.25;5.60;;;;;;;;;;4964349;28;25196;-75
2023/04/23 08:35:26;;;;;;;15.07;4.85;;;;;;;;;;4966797;28;25140;-77
2023/04/23 08:37:52;;;;;;;12.80;5.53;;;;;;;;;;4967932;28;25165;-76
2023/04/23 08:40:18;;;;;;;19.35;5.47;;;;;;;;;;4978504;28;25097;-78
2023/04/23 08:42:56;;;;;;;12.98;5.43;;;;;;;;;;4972445;28;25047;-74
2023/04/23 08:45:23;;;;;;;20.13;5.25;;;;;;;;;;4983400;28;25067;-71
2023/04/23 08:47:49;;;;;;;13.02;4.75;;;;;;;;;;4984889;28;25073;-75
2023/04/23 08:50:16;;;;;;;12.65;5.30;;;;;;;;;;4982089;28;25071;-78
2023/04/23 08:52:46;;;;;;;13.80;4.60;;;;;;;;;;4984496;28;25090;-77
2023/04/23 08:55:14;;;;;;;12.52;4.35;;;;;;;;;;4983109;28;25050;-73
2023/04/23 08:57:41;;;;;;;20.10;4.78;;;;;;;;;;4989069;28;25080;-72
2023/04/23 09:00:09;;;;;;;15.35;4.15;;;;;;;;;;4980854;28;25063;-75
2023/04/23 09:02:35;;;;;;;15.55;4.78;;;;;;;;;;4975909;28;25066;-77
2023/04/23 09:05:05;;;;;;;10.30;4.00;;;;;;;;;;4970989;28;25108;-76
2023/04/23 09:07:30;;;;;;;9.77;4.18;;;;;;;;;;4967376;28;25074;-76
2023/04/23 09:09:56;;;;;;;9.38;4.70;;;;;;;;;;4965977;28;25065;-76
2023/04/23 09:12:22;;;;;;;12.35;4.22;;;;;;;;;;4965298;28;25153;-74
2023/04/23 09:14:51;;;;;;;8.30;3.30;;;;;;;;;;4963904;28;25076;-76
2023/04/23 09:17:18;;;;;;;7.38;3.70;;;;;;;;;;4975849;28;24869;-76
2023/04/23 09:19:45;;;;;;;13.65;4.55;;;;;;;;;;4960273;28;25079;-77
2023/04/23 09:22:11;;;;;;;11.10;4.32;;;;;;;;;;4967567;28;25072;-77
2023/04/23 09:24:41;;;;;;;6.68;3.58;;;;;;;;;;4967487;28;25131;-75
2023/04/23 09:27:07;;;;;;;10.50;3.35;;;;;;;;;;4968837;28;25113;-77
2023/04/23 09:29:32;;;;;;;9.10;3.45;;;;;;;;;;4962793;28;25087;-74
2023/04/23 09:32:08;;;;;;;13.35;3.50;;;;;;;;;;4966022;28;25095;-76
2023/04/23 09:34:36;;;;;;;15.57;3.83;;;;;;;;;;4961513;28;25174;-74
2023/04/23 09:37:02;;;;;;;10.50;3.17;;;;;;;;;;4971780;28;25114;-78
2023/04/23 09:39:28;;;;;;;8.10;3.58;;;;;;;;;;4963472;28;25061;-78
2023/04/23 09:42:02;;;;;;;13.88;3.45;;;;;;;;;;4971345;28;25065;-77
2023/04/23 09:44:30;;;;;;;8.82;3.33;;;;;;;;;;4974309;28;25062;-75
2023/04/23 09:46:56;;;;;;;8.38;3.55;;;;;;;;;;4963174;28;25053;-75
2023/04/23 09:49:23;;;;;;;10.10;3.83;;;;;;;;;;4964947;28;25090;-76
2023/04/23 09:51:49;;;;;;;9.50;3.08;;;;;;;;;;4959894;28;25111;-76
2023/04/23 09:54:20;;;;;;;14.15;3.55;;;;;;;;;;4975150;28;25061;-77
2023/04/23 09:56:50;;;;;;;9.18;2.22;;;;;;;;;;4967440;28;25055;-76
2023/04/23 09:59:20;;;;;;;10.18;3.33;;;;;;;;;;4971061;28;25074;-76
2023/04/23 10:01:46;;;;;;;10.45;2.70;;;;;;;;;;4973121;28;25065;-78
2023/04/23 10:04:12;;;;;;;11.27;3.60;;;;;;;;;;4977182;28;25067;-75
2023/04/23 10:06:38;;;;;;;9.20;2.67;;;;;;;;;;4973087;28;25083;-75
2023/04/23 10:09:04;;;;;;;10.32;2.53;;;;;;;;;;4984654;28;25074;-74
2023/04/23 10:11:30;;;;;;;9.43;2.58;;;;;;;;;;5005892;28;25071;-72
2023/04/23 10:13:57;;;;;;;6.65;2.40;;;;;;;;;;5027053;28;25085;-72
2023/04/23 10:16:23;;;;;;;5.45;2.08;;;;;;;;;;4997265;28;25067;-73
2023/04/23 10:18:51;;;;;;;5.65;2.88;;;;;;;;;;4998571;28;25076;-74
2023/04/23 10:21:17;;;;;;;7.60;3.00;;;;;;;;;;4998086;28;25067;-74
2023/04/23 10:23:44;;;;;;;6.43;2.67;;;;;;;;;;4993014;28;25055;-76
2023/04/23 10:26:11;;;;;;;11.82;2.45;;;;;;;;;;4994648;28;25053;-75
2023/04/23 10:28:38;;;;;;;7.13;1.98;;;;;;;;;;4994029;28;25051;-74
2023/04/23 10:31:05;;;;;;;6.13;1.50;;;;;;;;;;4989508;28;25069;-74
2023/04/23 10:33:31;;;;;;;8.55;2.58;;;;;;;;;;4985164;28;25091;-76
2023/04/23 10:35:57;;;;;;;6.20;1.90;;;;;;;;;;4992967;28;25060;-71
2023/04/23 10:38:23;;;;;;;4.78;2.13;;;;;;;;;;4977626;28;25132;-73
2023/04/23 10:40:50;;;;;;;7.32;1.88;;;;;;;;;;4980057;28;25057;-73
2023/04/23 10:43:17;;;;;;;9.88;1.83;;;;;;;;;;4974295;28;25081;-73
2023/04/23 10:45:43;;;;;;;8.10;1.58;;;;;;;;;;4979083;28;25119;-75
2023/04/23 10:48:09;;;;;;;7.40;1.88;;;;;;;;;;4978805;28;25084;-72
2023/04/23 10:50:35;;;;;;;4.82;1.73;;;;;;;;;;4978388;28;25104;-72
2023/04/23 10:53:02;;;;;;;7.93;1.85;;;;;;;;;;5001923;28;25058;-71
2023/04/23 10:55:29;;;;;;;14.25;2.38;;;;;;;;;;4984552;28;25066;-73
2023/04/23 10:58:00;;;;;;;8.07;1.90;;;;;;;;;;4971562;28;25052;-74
2023/04/23 11:00:26;;;;;;;6.40;1.83;;;;;;;;;;4972508;28;25097;-73
2023/04/23 11:02:52;;;;;;;8.98;2.28;;;;;;;;;;4996034;28;25148;-73
2023/04/23 11:05:18;;;;;;;5.47;1.73;;;;;;;;;;4972169;28;25055;-73
2023/04/23 11:08:03;;;;;;;10.77;2.15;;;;;;;;;;4983042;28;25063;-73
2023/04/23 11:10:31;;;;;;;7.53;2.03;;;;;;;;;;4979068;28;25063;-76
2023/04/23 11:12:57;;;;;;;6.38;1.50;;;;;;;;;;4982621;28;25061;-75
2023/04/23 11:15:23;;;;;;;11.40;2.75;;;;;;;;;;4986560;28;25101;-75
2023/04/23 11:17:52;;;;;;;6.18;1.75;;;;;;;;;;4979718;28;25089;-74
2023/04/23 11:20:19;;;;;;;4.10;1.50;;;;;;;;;;4974267;28;25132;-74
2023/04/23 11:22:45;;;;;;;5.88;2.15;;;;;;;;;;4978378;28;25077;-75
2023/04/23 11:25:27;;;;;;;10.48;1.73;;;;;;;;;;4999882;28;25071;-77
2023/04/23 11:27:54;;;;;;;5.60;1.60;;;;;;;;;;4988574;28;25108;-75
2023/04/23 11:30:21;;;;;;;4.05;2.03;;;;;;;;;;4988438;28;25060;-74
2023/04/23 11:32:51;;;;;;;7.80;1.88;;;;;;;;;;4981045;28;25068;-77
2023/04/23 11:35:18;;;;;;;8.52;2.13;;;;;;;;;;4981313;28;25065;-77
2023/04/23 11:37:45;;;;;;;4.82;1.77;;;;;;;;;;4985103;28;25085;-76
2023/04/23 11:40:21;;;;;;;6.15;1.20;;;;;;;;;;4983985;28;25064;-77
2023/04/23 11:42:50;;;;;;;11.55;2.20;;;;;;;;;;4988739;28;25060;-77
2023/04/23 11:45:17;;;;;;;6.93;1.67;;;;;;;;;;4992018;28;25060;-76
2023/04/23 11:47:44;;;;;;;5.65;1.52;;;;;;;;;;4976132;28;25147;-74
2023/04/23 11:50:11;;;;;;;6.72;1.48;;;;;;;;;;4977560;28;25147;-74
2023/04/23 11:52:37;;;;;;;6.50;1.50;;;;;;;;;;4999795;28;25116;-78
2023/04/23 11:55:05;;;;;;;5.72;1.42;;;;;;;;;;4995201;28;25100;-73
2023/04/23 11:57:34;;;;;;;4.40;1.65;;;;;;;;;;4984392;28;25077;-76
2023/04/23 12:00:02;;;;;;;8.10;1.40;;;;;;;;;;4972771;28;25162;-76
2023/04/23 12:02:28;;;;;;;8.82;1.60;;;;;;;;;;4976709;28;25050;-75
2023/04/23 12:04:54;;;;;;;3.05;0.77;;;;;;;;;;4978293;28;25167;-76
2023/04/23 12:07:30;;;;;;;10.65;2.08;;;;;;;;;;4971324;28;25057;-76
2023/04/23 12:09:59;;;;;;;5.20;1.63;;;;;;;;;;4971804;28;25165;-77
2023/04/23 12:12:32;;;;;;;5.75;1.63;;;;;;;;;;4994915;28;25080;-76
2023/04/23 12:15:06;;;;;;;7.97;1.40;;;;;;;;;;4971498;28;25072;-77
2023/04/23 12:17:32;;;;;;;4.18;1.40;;;;;;;;;;4980378;28;25087;-75
2023/04/23 12:19:58;;;;;;;4.38;1.20;;;;;;;;;;4974333;28;25086;-77
2023/04/23 12:22:27;;;;;;;5.70;1.65;;;;;;;;;;4975615;28;25095;-75
2023/04/23 12:24:53;;;;;;;5.90;1.30;;;;;;;;;;4987581;28;25072;-75
2023/04/23 12:27:23;;;;;;;10.48;1.67;;;;;;;;;;4981401;28;25051;-77
2023/04/23 12:29:50;;;;;;;7.78;1.60;;;;;;;;;;4971060;28;25056;-76
2023/04/23 12:32:18;;;;;;;6.25;2.22;;;;;;;;;;4976404;28;25081;-76
2023/04/23 12:34:58;;;;;;;9.98;2.10;;;;;;;;;;4972062;28;25163;-77
2023/04/23 12:37:25;;;;;;;15.40;2.03;;;;;;;;;;4988673;28;25127;-77
2023/04/23 12:39:52;;;;;;;8.73;2.05;;;;;;;;;;4972824;28;25076;-78
2023/04/23 12:42:18;;;;;;;4.70;2.58;;;;;;;;;;4983194;28;25082;-77
2023/04/23 12:44:45;;;;;;;2.45;1.45;;;;;;;;;;4982767;28;25091;-78
2023/04/23 12:47:11;;;;;;;8.00;1.70;;;;;;;;;;4978831;28;25098;-76
2023/04/23 12:49:38;;;;;;;6.78;1.80;;;;;;;;;;4995594;28;25084;-76
2023/04/23 12:52:05;;;;;;;5.78;1.60;;;;;;;;;;4981220;28;24712;-74
2023/04/23 12:54:31;;;;;;;2.60;1.65;;;;;;;;;;4983161;28;25076;-77
2023/04/23 12:56:58;;;;;;;8.23;1.45;;;;;;;;;;4977022;28;25121;-76
2023/04/23 12:59:24;;;;;;;6.00;1.75;;;;;;;;;;4977023;28;25060;-76
2023/04/23 13:01:50;;;;;;;10.18;2.10;;;;;;;;;;4977470;28;25069;-76
2023/04/23 13:04:16;;;;;;;5.70;1.80;;;;;;;;;;4966259;28;25057;-77
2023/04/23 13:06:42;;;;;;;4.60;1.40;;;;;;;;;;4966746;28;25073;-77
2023/04/23 13:09:09;;;;;;;6.95;1.80;;;;;;;;;;4974357;28;25056;-77
2023/04/23 13:11:36;;;;;;;5.53;1.98;;;;;;;;;;4974013;28;25074;-77
2023/04/23 13:14:02;;;;;;;4.63;1.60;;;;;;;;;;4978995;28;25086;-79
2023/04/23 13:16:29;;;;;;;9.25;1.50;;;;;;;;;;4969259;28;25142;-76
2023/04/23 13:18:55;;;;;;;4.10;1.60;;;;;;;;;;4960851;28;25073;-77
2023/04/23 13:21:21;;;;;;;8.45;1.75;;;;;;;;;;4963442;28;25126;-78
2023/04/23 13:23:47;;;;;;;6.20;2.05;;;;;;;;;;4968425;28;25106;-78
2023/04/23 13:26:13;;;;;;;5.68;1.83;;;;;;;;;;4966997;28;25108;-78
2023/04/23 13:28:39;;;;;;;8.27;1.70;;;;;;;;;;4978619;28;25069;-77
2023/04/23 13:31:06;;;;;;;4.07;1.58;;;;;;;;;;4971647;28;25057;-77
2023/04/23 13:33:32;;;;;;;4.88;1.55;;;;;;;;;;4982492;28;25089;-76
2023/04/23 13:35:58;;;;;;;7.85;2.00;;;;;;;;;;4968717;28;25177;-76
2023/04/23 13:38:25;;;;;;;7.45;2.25;;;;;;;;;;4976373;28;25050;-75
2023/04/23 13:40:51;;;;;;;5.63;2.10;;;;;;;;;;4974597;28;25067;-78
2023/04/23 13:43:17;;;;;;;6.75;2.17;;;;;;;;;;4970967;28;24775;-74
2023/04/23 13:45:43;;;;;;;6.70;2.05;;;;;;;;;;4987222;28;25144;-77
2023/04/23 13:48:09;;;;;;;5.10;1.50;;;;;;;;;;4974766;28;25046;-77
2023/04/23 13:50:35;;;;;;;4.90;1.95;;;;;;;;;;4974703;28;25060;-77
2023/04/23 13:53:01;;;;;;;7.95;2.40;;;;;;;;;;4963764;28;25084;-75
2023/04/23 13:55:27;;;;;;;5.65;1.38;;;;;;;;;;4974009;28;25087;-76
2023/04/23 13:57:56;;;;;;;11.27;2.00;;;;;;;;;;4965716;28;25105;-76
2023/04/23 14:00:23;;;;;;;5.68;1.90;;;;;;;;;;4968750;28;25053;-74
2023/04/23 14:02:49;;;;;;;13.52;1.80;;;;;;;;;;4965167;28;25159;-75
2023/04/23 14:05:15;;;;;;;10.68;2.40;;;;;;;;;;4983241;28;25163;-77
2023/04/23 14:07:41;;;;;;;7.18;2.45;;;;;;;;;;4969079;28;25084;-75
2023/04/23 14:10:07;;;;;;;8.45;4.18;;;;;;;;;;4968267;28;25055;-77
2023/04/23 14:12:33;;;;;;;12.90;3.10;;;;;;;;;;4968936;28;25082;-76
2023/04/23 14:14:59;;;;;;;7.95;3.38;;;;;;;;;;4974768;28;25051;-76
2023/04/23 14:17:25;;;;;;;6.60;3.08;;;;;;;;;;4969163;28;25140;-75
2023/04/23 14:19:51;;;;;;;8.32;3.08;;;;;;;;;;4973207;28;25077;-76
2023/04/23 14:22:17;;;;;;;9.93;3.20;;;;;;;;;;4970570;28;25074;-76